createdAt,value
2022-07-29T00:00:18.176Z,101629.47
2022-07-29T00:00:49.777Z,101632.16
2022-07-29T00:01:21.520Z,101636.94
2022-07-29T00:01:53.559Z,101631.56
2022-07-29T00:02:25.184Z,101629.72
2022-07-29T00:02:56.823Z,101628.88
2022-07-29T00:03:28.563Z,101623.94
2022-07-29T00:04:00.266Z,101630.38
2022-07-29T00:04:31.950Z,101631.84
2022-07-29T00:05:04.885Z,101622.97
2022-07-29T00:05:36.455Z,101627.53
2022-07-29T00:06:08.397Z,101624.84
2022-07-29T00:06:40.403Z,101619.72
2022-07-29T00:07:12.012Z,101622.97
2022-07-29T00:07:45.503Z,101624.84
2022-07-29T00:08:17.106Z,101620.88
2022-07-29T00:08:48.750Z,101623.78
2022-07-29T00:09:20.336Z,101614.34
2022-07-29T00:09:52.617Z,101614.09
2022-07-29T00:10:24.401Z,101611.41
2022-07-29T00:10:56.020Z,101618.44
2022-07-29T00:11:27.674Z,101611.88
2022-07-29T00:12:01.410Z,101614.56
2022-07-29T00:12:33.285Z,101614.56
2022-07-29T00:13:04.857Z,101610.00
2022-07-29T00:13:36.503Z,101616.44
2022-07-29T00:14:08.846Z,101618.31
2022-07-29T00:14:40.435Z,101609.44
2022-07-29T00:15:12.028Z,101619.13
2022-07-29T00:15:43.565Z,101607.31
2022-07-29T00:16:15.117Z,101615.16
2022-07-29T00:16:46.735Z,101614.81
2022-07-29T00:17:18.970Z,101612.81
2022-07-29T00:17:50.953Z,101613.97
2022-07-29T00:18:22.464Z,101610.25
2022-07-29T00:18:54.049Z,101614.81
2022-07-29T00:19:25.589Z,101615.63
2022-07-29T00:19:57.224Z,101610.25
2022-07-29T00:20:28.905Z,101613.97
2022-07-29T00:21:00.575Z,101613.97
2022-07-29T00:21:32.263Z,101616.91
2022-07-29T00:22:03.843Z,101606.16
2022-07-29T00:22:38.693Z,101613.38
2022-07-29T00:23:13.603Z,101603.25
2022-07-29T00:23:45.361Z,101601.59
2022-07-29T00:24:17.254Z,101608.03
2022-07-29T00:24:49.910Z,101607.44
2022-07-29T00:25:21.468Z,101601.72
2022-07-29T00:25:52.997Z,101602.53
2022-07-29T00:26:24.613Z,101607.91
2022-07-29T00:26:56.249Z,101603.34
2022-07-29T00:27:27.821Z,101607.91
2022-07-29T00:27:59.368Z,101607.91
2022-07-29T00:28:30.933Z,101607.91
2022-07-29T00:29:32.429Z,101608.72
2022-07-29T00:29:55.578Z,101601.72
2022-07-29T00:30:27.138Z,101602.53
2022-07-29T00:30:58.731Z,101598.78
2022-07-29T00:31:30.500Z,101600.91
2022-07-29T00:32:03.248Z,101603.44
2022-07-29T00:32:34.928Z,101601.13
2022-07-29T00:33:09.092Z,101600.06
2022-07-29T00:33:40.847Z,101601.13
2022-07-29T00:34:30.821Z,101597.63
2022-07-29T00:35:20.787Z,101604.63
2022-07-29T00:35:52.393Z,101602.53
2022-07-29T00:36:24.987Z,101597.16
2022-07-29T00:36:57.064Z,101597.16
2022-07-29T00:37:28.685Z,101596.13
2022-07-29T00:38:00.280Z,101594.13
2022-07-29T00:38:33.796Z,101596.81
2022-07-29T00:39:05.301Z,101597.03
2022-07-29T00:39:36.966Z,101596.00
2022-07-29T00:40:09.326Z,101598.91
2022-07-29T00:40:43.307Z,101594.34
2022-07-29T00:41:16.697Z,101597.25
2022-07-29T00:41:48.362Z,101596.44
2022-07-29T00:42:19.977Z,101594.78
2022-07-29T00:42:52.743Z,101592.72
2022-07-29T00:43:24.345Z,101591.91
2022-07-29T00:43:55.888Z,101597.03
2022-07-29T00:44:27.428Z,101590.03
2022-07-29T00:44:58.965Z,101586.06
2022-07-29T00:45:31.086Z,101596.00
2022-07-29T00:46:02.728Z,101588.97
2022-07-29T00:46:34.321Z,101590.25
2022-07-29T00:47:06.530Z,101591.09
2022-07-29T00:47:38.145Z,101590.03
2022-07-29T00:48:09.898Z,101590.03
2022-07-29T00:48:41.535Z,101589.41
2022-07-29T00:49:13.814Z,101589.41
2022-07-29T00:49:45.520Z,101590.25
2022-07-29T00:50:17.902Z,101590.47
2022-07-29T00:50:50.464Z,101589.41
2022-07-29T00:51:22.010Z,101590.47
2022-07-29T00:51:54.408Z,101592.09
2022-07-29T00:52:26.295Z,101589.41
2022-07-29T00:52:57.971Z,101586.16
2022-07-29T00:53:30.919Z,101592.56
2022-07-29T00:54:03.788Z,101595.47
2022-07-29T00:54:39.193Z,101588.25
2022-07-29T00:55:16.883Z,101589.97
2022-07-29T00:55:48.517Z,101589.97
2022-07-29T00:56:20.399Z,101586.72
2022-07-29T00:56:52.055Z,101589.16
2022-07-29T00:57:23.712Z,101587.06
2022-07-29T00:57:56.076Z,101589.16
2022-07-29T00:58:27.852Z,101589.16
2022-07-29T00:59:00.745Z,101588.34
2022-07-29T00:59:34.826Z,101584.84
2022-07-29T01:00:09.378Z,101581.34
2022-07-29T01:00:41.862Z,101588.56
2022-07-29T01:01:13.606Z,101575.97
2022-07-29T01:01:45.242Z,101580.53
2022-07-29T01:02:17.026Z,101574.56
2022-07-29T01:02:49.601Z,101573.97
2022-07-29T01:03:21.141Z,101579.34
2022-07-29T01:03:52.741Z,101578.53
2022-07-29T01:04:24.400Z,101579.34
2022-07-29T01:04:58.056Z,101579.56
2022-07-29T01:05:50.576Z,101581.44
2022-07-29T01:06:22.896Z,101568.25
2022-07-29T01:06:54.758Z,101571.97
2022-07-29T01:07:27.018Z,101574.44
2022-07-29T01:07:58.950Z,101571.97
2022-07-29T01:08:31.635Z,101572.81
2022-07-29T01:09:04.265Z,101567.44
2022-07-29T01:09:45.856Z,101574.44
2022-07-29T01:10:19.968Z,101564.97
2022-07-29T01:10:51.976Z,101567.91
2022-07-29T01:11:23.690Z,101566.03
2022-07-29T01:11:55.352Z,101564.16
2022-07-29T01:12:28.201Z,101569.53
2022-07-29T01:13:00.949Z,101573.84
2022-07-29T01:13:34.258Z,101572.81
2022-07-29T01:14:07.738Z,101565.56
2022-07-29T01:14:40.089Z,101571.97
2022-07-29T01:15:12.061Z,101569.06
2022-07-29T01:15:53.410Z,101565.34
2022-07-29T01:16:32.142Z,101568.47
2022-07-29T01:17:26.995Z,101565.81
2022-07-29T01:18:37.073Z,101569.06
2022-07-29T01:19:18.314Z,101562.53
2022-07-29T01:19:56.112Z,101560.66
2022-07-29T01:20:40.010Z,101560.19
2022-07-29T01:21:38.914Z,101562.06
2022-07-29T01:23:01.191Z,101556.13
2022-07-29T01:23:57.326Z,101553.44
2022-07-29T01:24:43.705Z,101553.88
2022-07-29T01:25:34.401Z,101555.75
2022-07-29T01:26:30.881Z,101553.88
2022-07-29T01:27:24.750Z,101553.06
2022-07-29T01:28:09.951Z,101559.25
2022-07-29T01:28:58.780Z,101560.91
2022-07-29T01:29:38.846Z,101555.53
2022-07-29T01:30:13.852Z,101559.25
2022-07-29T01:30:50.916Z,101558.22
2022-07-29T01:31:58.554Z,101555.53
2022-07-29T01:32:34.522Z,101554.13
2022-07-29T01:33:09.230Z,101552.25
2022-07-29T01:33:50.314Z,101555.38
2022-07-29T01:34:37.113Z,101558.06
2022-07-29T01:35:24.833Z,101558.88
2022-07-29T01:35:56.551Z,101556.41
2022-07-29T01:36:34.973Z,101547.31
2022-07-29T01:37:21.413Z,101552.69
2022-07-29T01:38:18.658Z,101555.13
2022-07-29T01:39:06.523Z,101546.28
2022-07-29T01:39:39.476Z,101550.22
2022-07-29T01:40:18.825Z,101552.09
2022-07-29T01:41:12.293Z,101543.22
2022-07-29T01:41:52.050Z,101546.72
2022-07-29T01:42:39.258Z,101546.72
2022-07-29T01:43:13.949Z,101540.78
2022-07-29T01:43:51.160Z,101543.69
2022-07-29T01:44:33.252Z,101537.03
2022-07-29T01:45:14.982Z,101539.13
2022-07-29T01:45:49.920Z,101535.41
2022-07-29T01:46:26.942Z,101543.47
2022-07-29T01:47:00.728Z,101538.09
2022-07-29T01:48:05.978Z,101532.97
2022-07-29T01:48:49.407Z,101540.78
2022-07-29T01:49:28.573Z,101533.78
2022-07-29T01:50:00.775Z,101537.88
2022-07-29T01:50:39.046Z,101543.00
2022-07-29T01:51:14.605Z,101543.00
2022-07-29T01:51:52.986Z,101539.13
2022-07-29T01:52:29.115Z,101537.03
2022-07-29T01:53:03.409Z,101540.78
2022-07-29T01:53:47.392Z,101541.81
2022-07-29T01:54:31.590Z,101529.91
2022-07-29T01:55:10.894Z,101542.06
2022-07-29T01:55:45.779Z,101541.69
2022-07-29T01:56:19.692Z,101540.41
2022-07-29T01:56:52.817Z,101541.69
2022-07-29T01:57:28.002Z,101540.06
2022-07-29T01:58:01.443Z,101540.88
2022-07-29T01:58:33.868Z,101540.88
2022-07-29T01:59:06.565Z,101544.59
2022-07-29T01:59:38.644Z,101545.44
2022-07-29T02:00:11.138Z,101549.16
2022-07-29T02:00:46.512Z,101549.97
2022-07-29T02:01:19.080Z,101538.41
2022-07-29T02:01:54.455Z,101546.59
2022-07-29T02:02:27.600Z,101546.59
2022-07-29T02:03:01.382Z,101540.41
2022-07-29T02:03:33.566Z,101542.88
2022-07-29T02:04:07.240Z,101537.50
2022-07-29T02:04:40.407Z,101535.41
2022-07-29T02:05:15.939Z,101538.31
2022-07-29T02:05:49.125Z,101535.88
2022-07-29T02:06:22.458Z,101536.69
2022-07-29T02:06:54.393Z,101538.31
2022-07-29T02:07:26.834Z,101534.22
2022-07-29T02:07:59.860Z,101532.97
2022-07-29T02:08:33.317Z,101539.59
2022-07-29T02:09:05.592Z,101528.88
2022-07-29T02:09:40.670Z,101537.16
2022-07-29T02:10:13.397Z,101528.88
2022-07-29T02:10:45.641Z,101528.88
2022-07-29T02:11:17.333Z,101528.88
2022-07-29T02:11:52.406Z,101531.56
2022-07-29T02:12:25.319Z,101528.50
2022-07-29T02:12:58.299Z,101527.69
2022-07-29T02:13:30.475Z,101530.84
2022-07-29T02:14:02.665Z,101531.88
2022-07-29T02:14:38.498Z,101532.25
2022-07-29T02:15:10.911Z,101522.78
2022-07-29T02:15:44.473Z,101529.66
2022-07-29T02:16:16.852Z,101537.13
2022-07-29T02:16:50.769Z,101538.75
2022-07-29T02:17:26.475Z,101533.38
2022-07-29T02:18:17.822Z,101537.25
2022-07-29T02:18:49.909Z,101528.38
2022-07-29T02:19:23.407Z,101538.06
2022-07-29T02:20:03.836Z,101532.69
2022-07-29T02:20:35.569Z,101531.28
2022-07-29T02:21:15.554Z,101536.06
2022-07-29T02:21:47.786Z,101537.47
2022-07-29T02:22:19.490Z,101527.44
2022-07-29T02:22:51.918Z,101528.47
2022-07-29T02:23:24.570Z,101520.78
2022-07-29T02:23:57.293Z,101531.75
2022-07-29T02:24:29.817Z,101534.44
2022-07-29T02:25:02.120Z,101532.41
2022-07-29T02:25:38.254Z,101530.34
2022-07-29T02:26:10.376Z,101525.56
2022-07-29T02:26:42.753Z,101531.75
2022-07-29T02:27:15.252Z,101531.22
2022-07-29T02:27:48.055Z,101529.94
2022-07-29T02:28:20.141Z,101528.78
2022-07-29T02:28:53.737Z,101534.50
2022-07-29T02:29:27.477Z,101543.38
2022-07-29T02:29:59.674Z,101539.50
2022-07-29T02:30:31.618Z,101543.69
2022-07-29T02:31:04.491Z,101542.41
2022-07-29T02:31:36.846Z,101536.22
2022-07-29T02:32:09.633Z,101534.59
2022-07-29T02:32:42.688Z,101537.50
2022-07-29T02:33:17.181Z,101540.09
2022-07-29T02:33:49.291Z,101538.31
2022-07-29T02:34:21.856Z,101537.28
2022-07-29T02:34:53.587Z,101539.81
2022-07-29T02:35:25.648Z,101536.41
2022-07-29T02:35:57.594Z,101536.31
2022-07-29T02:36:29.554Z,101536.56
2022-07-29T02:37:01.380Z,101536.56
2022-07-29T02:37:33.233Z,101538.19
2022-07-29T02:38:23.212Z,101534.91
2022-07-29T02:38:58.500Z,101540.41
2022-07-29T02:39:30.641Z,101538.19
2022-07-29T02:40:03.086Z,101542.72
2022-07-29T02:40:35.985Z,101537.13
2022-07-29T02:41:13.418Z,101537.13
2022-07-29T02:41:59.012Z,101543.69
2022-07-29T02:42:31.827Z,101540.78
2022-07-29T02:43:05.341Z,101530.88
2022-07-29T02:43:36.995Z,101536.22
2022-07-29T02:44:13.984Z,101536.47
2022-07-29T02:44:45.840Z,101536.09
2022-07-29T02:45:17.419Z,101547.88
2022-07-29T02:45:53.089Z,101543.91
2022-07-29T02:46:31.349Z,101540.41
2022-07-29T02:47:12.628Z,101542.03
2022-07-29T02:47:48.966Z,101537.91
2022-07-29T02:48:24.327Z,101537.59
2022-07-29T02:49:00.261Z,101547.72
2022-07-29T02:49:34.435Z,101542.22
2022-07-29T02:50:30.946Z,101539.69
2022-07-29T02:51:08.255Z,101542.72
2022-07-29T02:52:03.845Z,101546.22
2022-07-29T02:53:13.843Z,101544.13
2022-07-29T02:53:50.362Z,101547.88
2022-07-29T02:54:36.444Z,101547.41
2022-07-29T02:55:16.309Z,101545.41
2022-07-29T02:55:53.038Z,101547.97
2022-07-29T02:56:29.332Z,101549.50
2022-07-29T02:57:05.553Z,101542.38
2022-07-29T02:57:55.448Z,101548.19
2022-07-29T02:58:29.840Z,101549.47
2022-07-29T02:59:05.679Z,101542.38
2022-07-29T02:59:38.881Z,101539.69
2022-07-29T03:00:11.340Z,101542.97
2022-07-29T03:00:45.180Z,101543.78
2022-07-29T03:01:21.678Z,101547.88
2022-07-29T03:01:55.580Z,101547.41
2022-07-29T03:02:28.425Z,101554.88
2022-07-29T03:03:04.771Z,101552.28
2022-07-29T03:03:38.505Z,101555.31
2022-07-29T03:04:10.983Z,101561.03
2022-07-29T03:04:43.731Z,101574.81
2022-07-29T03:05:18.722Z,101571.69
2022-07-29T03:05:50.565Z,101565.28
2022-07-29T03:06:28.261Z,101570.63
2022-07-29T03:07:10.085Z,101573.09
2022-07-29T03:07:43.101Z,101570.50
2022-07-29T03:08:15.899Z,101571.09
2022-07-29T03:08:48.407Z,101575.72
2022-07-29T03:09:20.610Z,101573.50
2022-07-29T03:09:52.864Z,101570.09
2022-07-29T03:10:28.480Z,101575.44
2022-07-29T03:11:00.599Z,101573.63
2022-07-29T03:11:45.903Z,101568.72
2022-07-29T03:12:21.437Z,101583.59
2022-07-29T03:12:54.057Z,101577.19
2022-07-29T03:13:26.188Z,101569.53
2022-07-29T03:13:58.008Z,101572.50
2022-07-29T03:14:29.730Z,101572.13
2022-07-29T03:15:01.884Z,101572.59
2022-07-29T03:15:33.666Z,101570.50
2022-07-29T03:16:06.926Z,101576.97
2022-07-29T03:16:41.231Z,101571.38
2022-07-29T03:17:13.463Z,101574.28
2022-07-29T03:17:45.144Z,101578.66
2022-07-29T03:18:16.969Z,101578.50
2022-07-29T03:18:48.886Z,101577.69
2022-07-29T03:19:21.390Z,101577.25
2022-07-29T03:19:53.353Z,101580.88
2022-07-29T03:20:25.340Z,101579.25
2022-07-29T03:20:57.205Z,101580.28
2022-07-29T03:21:28.786Z,101583.34
2022-07-29T03:22:00.726Z,101569.91
2022-07-29T03:22:32.284Z,101578.09
2022-07-29T03:23:03.832Z,101577.63
2022-07-29T03:23:36.803Z,101576.16
2022-07-29T03:24:10.844Z,101577.81
2022-07-29T03:24:42.764Z,101561.72
2022-07-29T03:25:16.290Z,101565.59
2022-07-29T03:25:47.950Z,101564.78
2022-07-29T03:26:20.042Z,101562.91
2022-07-29T03:26:51.743Z,101562.91
2022-07-29T03:27:23.391Z,101560.00
2022-07-29T03:27:55.079Z,101556.28
2022-07-29T03:28:28.257Z,101551.75
2022-07-29T03:28:59.986Z,101549.06
2022-07-29T03:29:33.408Z,101550.91
2022-07-29T03:30:08.264Z,101550.09
2022-07-29T03:30:40.569Z,101553.38
2022-07-29T03:31:16.346Z,101555.03
2022-07-29T03:31:47.920Z,101550.56
2022-07-29T03:32:25.117Z,101545.78
2022-07-29T03:32:58.841Z,101556.91
2022-07-29T03:33:31.378Z,101555.03
2022-07-29T03:34:02.966Z,101545.56
2022-07-29T03:34:34.607Z,101548.63
2022-07-29T03:35:07.278Z,101545.97
2022-07-29T03:35:39.038Z,101547.00
2022-07-29T03:36:10.578Z,101552.38
2022-07-29T03:36:42.118Z,101555.03
2022-07-29T03:37:14.158Z,101558.28
2022-07-29T03:37:46.385Z,101561.28
2022-07-29T03:38:18.006Z,101555.31
2022-07-29T03:38:50.272Z,101559.44
2022-07-29T03:39:25.196Z,101562.44
2022-07-29T03:39:58.263Z,101560.97
2022-07-29T03:40:36.257Z,101563.94
2022-07-29T03:41:10.494Z,101562.13
2022-07-29T03:41:43.388Z,101557.38
2022-07-29T03:42:16.456Z,101567.66
2022-07-29T03:42:48.343Z,101560.34
2022-07-29T03:43:20.912Z,101566.16
2022-07-29T03:43:52.932Z,101557.06
2022-07-29T03:44:26.416Z,101563.47
2022-07-29T03:44:59.630Z,101562.34
2022-07-29T03:45:31.834Z,101566.44
2022-07-29T03:46:05.018Z,101560.19
2022-07-29T03:46:40.955Z,101564.81
2022-07-29T03:47:15.906Z,101564.22
2022-07-29T03:47:52.890Z,101565.84
2022-07-29T03:48:27.588Z,101563.41
2022-07-29T03:49:01.409Z,101561.25
2022-07-29T03:49:33.738Z,101558.34
2022-07-29T03:50:10.856Z,101555.00
2022-07-29T03:50:42.639Z,101561.03
2022-07-29T03:51:14.628Z,101563.31
2022-07-29T03:51:46.445Z,101569.13
2022-07-29T03:52:18.143Z,101565.78
2022-07-29T03:52:50.155Z,101556.25
2022-07-29T03:53:21.777Z,101557.22
2022-07-29T03:53:53.744Z,101557.38
2022-07-29T03:54:25.568Z,101553.69
2022-07-29T03:54:57.148Z,101555.31
2022-07-29T03:55:30.744Z,101554.28
2022-07-29T03:56:03.256Z,101551.59
2022-07-29T03:56:38.859Z,101555.69
2022-07-29T03:57:11.928Z,101558.13
2022-07-29T03:57:45.660Z,101553.22
2022-07-29T03:58:17.414Z,101549.50
2022-07-29T03:58:51.262Z,101546.53
2022-07-29T03:59:23.545Z,101550.38
2022-07-29T03:59:55.763Z,101548.91
2022-07-29T04:00:28.374Z,101541.47
2022-07-29T04:01:00.478Z,101542.50
2022-07-29T04:01:34.009Z,101548.91
2022-07-29T04:02:06.586Z,101547.28
2022-07-29T04:02:39.071Z,101538.63
2022-07-29T04:03:11.818Z,101542.97
2022-07-29T04:03:43.535Z,101546.88
2022-07-29T04:04:15.605Z,101545.47
2022-07-29T04:04:47.911Z,101544.06
2022-07-29T04:05:19.901Z,101550.69
2022-07-29T04:06:07.465Z,101547.06
2022-07-29T04:06:43.025Z,101554.88
2022-07-29T04:07:16.019Z,101557.53
2022-07-29T04:07:48.598Z,101547.88
2022-07-29T04:08:20.145Z,101550.31
2022-07-29T04:08:51.690Z,101550.69
2022-07-29T04:09:23.324Z,101543.09
2022-07-29T04:09:54.869Z,101545.78
2022-07-29T04:10:31.507Z,101542.66
2022-07-29T04:11:04.481Z,101541.00
2022-07-29T04:12:03.511Z,101540.41
2022-07-29T04:12:29.081Z,101545.34
2022-07-29T04:13:00.888Z,101539.97
2022-07-29T04:13:33.153Z,101539.97
2022-07-29T04:14:04.795Z,101540.56
2022-07-29T04:14:36.619Z,101534.97
2022-07-29T04:15:08.752Z,101535.78
2022-07-29T04:15:40.359Z,101536.38
2022-07-29T04:16:12.040Z,101532.88
2022-07-29T04:16:43.631Z,101539.06
2022-07-29T04:17:15.234Z,101533.72
2022-07-29T04:17:46.805Z,101539.53
2022-07-29T04:18:20.797Z,101540.34
2022-07-29T04:18:52.326Z,101544.88
2022-07-29T04:19:23.895Z,101540.56
2022-07-29T04:19:55.425Z,101547.56
2022-07-29T04:20:27.066Z,101546.97
2022-07-29T04:21:01.704Z,101546.75
2022-07-29T04:21:38.781Z,101543.69
2022-07-29T04:22:10.325Z,101538.34
2022-07-29T04:22:42.164Z,101547.41
2022-07-29T04:23:13.988Z,101545.78
2022-07-29T04:23:53.889Z,101542.28
2022-07-29T04:24:26.180Z,101547.88
2022-07-29T04:25:01.759Z,101545.78
2022-07-29T04:25:38.600Z,101543.97
2022-07-29T04:26:11.796Z,101543.69
2022-07-29T04:26:43.460Z,101541.47
2022-07-29T04:27:15.073Z,101537.50
2022-07-29T04:28:01.793Z,101531.34
2022-07-29T04:28:33.406Z,101529.03
2022-07-29T04:29:05.090Z,101531.47
2022-07-29T04:29:36.648Z,101532.06
2022-07-29T04:30:29.020Z,101530.66
2022-07-29T04:31:00.625Z,101526.94
2022-07-29T04:31:32.290Z,101527.75
2022-07-29T04:32:04.181Z,101529.63
2022-07-29T04:32:35.730Z,101527.75
2022-07-29T04:33:07.981Z,101531.25
2022-07-29T04:33:40.094Z,101529.63
2022-07-29T04:34:11.985Z,101533.34
2022-07-29T04:34:43.618Z,101534.16
2022-07-29T04:35:15.161Z,101535.78
2022-07-29T04:35:50.006Z,101541.38
2022-07-29T04:36:28.666Z,101534.16
2022-07-29T04:37:01.624Z,101541.59
2022-07-29T04:37:33.676Z,101537.44
2022-07-29T04:38:06.725Z,101537.44
2022-07-29T04:38:38.989Z,101548.16
2022-07-29T04:39:11.342Z,101542.44
2022-07-29T04:39:42.884Z,101542.19
2022-07-29T04:40:14.572Z,101541.16
2022-07-29T04:40:47.038Z,101541.16
2022-07-29T04:41:20.180Z,101539.06
2022-07-29T04:41:54.955Z,101539.88
2022-07-29T04:42:27.994Z,101535.34
2022-07-29T04:43:02.144Z,101535.34
2022-07-29T04:43:37.373Z,101527.97
2022-07-29T04:44:08.915Z,101536.25
2022-07-29T04:44:43.168Z,101525.53
2022-07-29T04:45:15.119Z,101523.06
2022-07-29T04:45:47.754Z,101522.25
2022-07-29T04:46:19.417Z,101517.34
2022-07-29T04:46:51.249Z,101517.78
2022-07-29T04:47:22.812Z,101522.97
2022-07-29T04:47:54.583Z,101521.19
2022-07-29T04:48:28.700Z,101524.47
2022-07-29T04:49:00.704Z,101522.84
2022-07-29T04:49:32.402Z,101518.75
2022-07-29T04:50:04.584Z,101522.47
2022-07-29T04:50:39.452Z,101513.63
2022-07-29T04:51:11.064Z,101522.47
2022-07-29T04:51:42.786Z,101518.38
2022-07-29T04:52:14.362Z,101518.38
2022-07-29T04:52:45.956Z,101523.97
2022-07-29T04:53:17.526Z,101528.72
2022-07-29T04:53:49.178Z,101518.81
2022-07-29T04:54:20.754Z,101526.88
2022-07-29T04:54:52.525Z,101528.72
2022-07-29T04:55:24.113Z,101530.00
2022-07-29T04:55:55.837Z,101529.16
2022-07-29T04:56:27.728Z,101529.22
2022-07-29T04:56:59.272Z,101529.41
2022-07-29T04:57:30.849Z,101542.78
2022-07-29T04:58:02.388Z,101542.34
2022-07-29T04:58:37.109Z,101549.34
2022-07-29T04:59:08.764Z,101553.94
2022-07-29T04:59:40.334Z,101559.91
2022-07-29T05:00:12.317Z,101565.56
2022-07-29T05:00:43.903Z,101566.00
2022-07-29T05:01:15.791Z,101563.31
2022-07-29T05:01:47.510Z,101565.84
2022-07-29T05:02:19.313Z,101553.50
2022-07-29T05:02:51.022Z,101557.59
2022-07-29T05:03:23.447Z,101563.91
2022-07-29T05:04:00.118Z,101560.19
2022-07-29T05:04:32.089Z,101557.22
2022-07-29T05:05:03.859Z,101555.53
2022-07-29T05:05:35.612Z,101553.81
2022-07-29T05:06:07.309Z,101547.88
2022-07-29T05:06:38.814Z,101550.78
2022-07-29T05:07:10.369Z,101539.25
2022-07-29T05:07:42.199Z,101538.63
2022-07-29T05:08:13.827Z,101537.19
2022-07-29T05:08:45.453Z,101536.84
2022-07-29T05:09:17.074Z,101540.56
2022-07-29T05:09:48.759Z,101528.19
2022-07-29T05:10:20.403Z,101531.09
2022-07-29T05:10:51.979Z,101532.59
2022-07-29T05:11:26.110Z,101529.53
2022-07-29T05:12:01.800Z,101523.81
2022-07-29T05:12:33.475Z,101521.38
2022-07-29T05:13:07.389Z,101518.31
2022-07-29T05:13:45.070Z,101523.66
2022-07-29T05:14:18.956Z,101517.91
2022-07-29T05:14:50.808Z,101521.03
2022-07-29T05:15:22.373Z,101523.94
2022-07-29T05:15:54.001Z,101524.75
2022-07-29T05:16:25.685Z,101518.19
2022-07-29T05:16:58.114Z,101514.94
2022-07-29T05:17:29.655Z,101523.63
2022-07-29T05:18:01.932Z,101517.84
2022-07-29T05:18:33.515Z,101524.00
2022-07-29T05:19:05.136Z,101514.94
2022-07-29T05:19:39.415Z,101514.34
2022-07-29T05:20:11.590Z,101518.19
2022-07-29T05:20:43.169Z,101519.84
2022-07-29T05:21:14.756Z,101524.97
2022-07-29T05:21:46.337Z,101536.06
2022-07-29T05:22:21.524Z,101530.44
2022-07-29T05:22:53.451Z,101537.88
2022-07-29T05:23:25.090Z,101546.97
2022-07-29T05:23:56.725Z,101544.06
2022-07-29T05:24:28.520Z,101539.50
2022-07-29T05:25:01.452Z,101536.84
2022-07-29T05:25:43.550Z,101538.00
2022-07-29T05:26:16.460Z,101539.94
2022-07-29T05:26:48.022Z,101544.44
2022-07-29T05:27:19.571Z,101547.69
2022-07-29T05:27:51.556Z,101548.53
2022-07-29T05:28:23.231Z,101548.88
2022-07-29T05:28:55.463Z,101541.91
2022-07-29T05:29:44.863Z,101545.53
2022-07-29T05:30:17.359Z,101545.31
2022-07-29T05:30:49.381Z,101549.63
2022-07-29T05:31:21.525Z,101545.09
2022-07-29T05:31:54.022Z,101554.25
2022-07-29T05:32:25.721Z,101550.97
2022-07-29T05:32:57.239Z,101550.97
2022-07-29T05:33:35.771Z,101549.94
2022-07-29T05:34:08.323Z,101553.81
2022-07-29T05:34:50.813Z,101552.25
2022-07-29T05:35:23.594Z,101552.16
2022-07-29T05:36:00.311Z,101557.06
2022-07-29T05:36:32.537Z,101550.38
2022-07-29T05:37:04.182Z,101549.50
2022-07-29T05:37:35.738Z,101553.81
2022-07-29T05:38:07.296Z,101549.06
2022-07-29T05:38:39.126Z,101543.31
2022-07-29T05:39:10.778Z,101539.81
2022-07-29T05:39:47.409Z,101544.16
2022-07-29T05:40:21.427Z,101543.16
2022-07-29T05:40:52.977Z,101543.81
2022-07-29T05:41:24.518Z,101543.53
2022-07-29T05:41:56.147Z,101532.44
2022-07-29T05:42:27.785Z,101543.16
2022-07-29T05:42:59.381Z,101545.47
2022-07-29T05:43:31.502Z,101540.94
2022-07-29T05:44:03.357Z,101540.69
2022-07-29T05:44:38.009Z,101549.78
2022-07-29T05:45:10.013Z,101554.31
2022-07-29T05:45:49.673Z,101557.81
2022-07-29T05:46:22.284Z,101560.50
2022-07-29T05:46:53.922Z,101567.16
2022-07-29T05:47:25.622Z,101566.13
2022-07-29T05:47:58.071Z,101576.69
2022-07-29T05:48:29.649Z,101577.28
2022-07-29T05:49:01.602Z,101579.69
2022-07-29T05:49:33.624Z,101595.09
2022-07-29T05:50:05.756Z,101588.47
2022-07-29T05:50:37.287Z,101592.94
2022-07-29T05:51:19.520Z,101598.91
2022-07-29T05:51:51.682Z,101600.31
2022-07-29T05:52:23.500Z,101596.59
2022-07-29T05:52:55.026Z,101593.69
2022-07-29T05:53:26.619Z,101589.22
2022-07-29T05:53:58.164Z,101590.03
2022-07-29T05:54:29.833Z,101588.25
2022-07-29T05:55:05.215Z,101584.75
2022-07-29T05:55:36.783Z,101589.97
2022-07-29T05:56:10.663Z,101586.19
2022-07-29T05:56:42.253Z,101590.28
2022-07-29T05:57:19.544Z,101593.94
2022-07-29T05:57:53.177Z,101590.00
2022-07-29T05:58:24.725Z,101590.59
2022-07-29T05:58:56.344Z,101596.56
2022-07-29T05:59:30.453Z,101594.25
2022-07-29T06:00:02.548Z,101590.53
2022-07-29T06:00:43.974Z,101603.72
2022-07-29T06:01:15.573Z,101598.94
2022-07-29T06:01:47.186Z,101598.34
2022-07-29T06:02:19.058Z,101601.50
2022-07-29T06:02:50.618Z,101601.47
2022-07-29T06:03:22.335Z,101591.78
2022-07-29T06:03:53.970Z,101600.25
2022-07-29T06:04:25.644Z,101594.06
2022-07-29T06:04:57.323Z,101591.38
2022-07-29T06:05:28.928Z,101584.63
2022-07-29T06:06:00.465Z,101590.75
2022-07-29T06:06:32.030Z,101591.03
2022-07-29T06:07:03.689Z,101591.81
2022-07-29T06:07:35.294Z,101594.25
2022-07-29T06:08:08.338Z,101597.94
2022-07-29T06:08:41.117Z,101595.84
2022-07-29T06:09:13.354Z,101597.25
2022-07-29T06:09:45.854Z,101602.41
2022-07-29T06:10:17.372Z,101592.13
2022-07-29T06:10:49.113Z,101595.41
2022-07-29T06:11:20.671Z,101592.50
2022-07-29T06:11:53.336Z,101591.22
2022-07-29T06:12:24.922Z,101587.41
2022-07-29T06:12:56.464Z,101591.50
2022-07-29T06:13:28.615Z,101584.88
2022-07-29T06:14:00.140Z,101580.31
2022-07-29T06:14:31.677Z,101583.44
2022-07-29T06:15:03.753Z,101587.13
2022-07-29T06:15:35.434Z,101581.75
2022-07-29T06:16:07.052Z,101578.50
2022-07-29T06:16:38.695Z,101583.19
2022-07-29T06:17:12.735Z,101582.94
2022-07-29T06:18:00.617Z,101575.50
2022-07-29T06:18:33.010Z,101582.13
2022-07-29T06:19:05.358Z,101586.91
2022-07-29T06:19:37.438Z,101569.78
2022-07-29T06:20:10.805Z,101579.22
2022-07-29T06:20:42.555Z,101589.50
2022-07-29T06:21:14.120Z,101581.22
2022-07-29T06:21:46.455Z,101575.88
2022-07-29T06:22:18.316Z,101583.91
2022-07-29T06:22:49.851Z,101579.38
2022-07-29T06:23:22.866Z,101577.38
2022-07-29T06:23:54.479Z,101576.78
2022-07-29T06:24:26.109Z,101578.41
2022-07-29T06:24:57.629Z,101573.03
2022-07-29T06:25:35.662Z,101568.13
2022-07-29T06:26:07.385Z,101580.34
2022-07-29T06:26:40.236Z,101581.41
2022-07-29T06:27:12.285Z,101579.75
2022-07-29T06:27:43.811Z,101579.75
2022-07-29T06:28:15.615Z,101578.72
2022-07-29T06:28:47.123Z,101573.94
2022-07-29T06:29:18.768Z,101571.72
2022-07-29T06:29:50.352Z,101573.34
2022-07-29T06:30:21.888Z,101574.63